2000 NORMAN (2000060S17123)


On this page: IBTrACS data - Map and Plots - Positions - Intensities - Original source data

Summary

Start Feb 29
End Mar 10
Basin SI
LMI 120 kt
Sources jtwc_sh
bom
neumann
In WMO? Yes
Previous storm 2000 0919992000 (SI)
Previous in basin 2000 0919992000 (SI)
Concurrent storms 2000 ELINE (SI)
2000 KIM (SP)
2000 STEVE (SP)
2000 GLORIA (SI)
2000 0919992000 (SI)
2000 NORMAN (SI)
2000 LEO (SP)
2000 HR19SMONA (SP)
Next in basin 2000 OLGA (SI)
Next storm 2000 LEO (SP)

top of page IBTrACS Data: File Access

top of page HURSAT Data: File Access

Image of storm

top of page Plots:

Map of storm track will not appear if FTP is down
Time series of cyclone Maximum Sustained Wind will not appear if FTP is down
Time series of cyclone Minimum Central Pressure will not appear if FTP is down

top of page Track Data:Position

jtwc_sh bom neumann
Date Lat Lon Lat Lon Lat Lon
2000-02-29 00:00:00 -17.4 122.8
2000-02-29 06:00:00 -17.6 121.7
2000-02-29 12:00:00 -18.6 119.6 -17.9 120.0 -18.6 119.6
2000-02-29 18:00:00 -18.8 118.6 -18.4 118.6 -18.8 118.6
2000-03-01 00:00:00 -18.5 117.2 -18.6 117.5 -18.5 117.2
2000-03-01 06:00:00 -18.4 116.3 -18.6 116.5 -18.4 116.3
2000-03-01 12:00:00 -18.3 115.5 -18.7 115.5 -18.3 115.5
2000-03-01 18:00:00 -18.4 114.7 -18.6 114.5 -18.4 114.7
2000-03-02 00:00:00 -18.7 113.6 -18.8 113.5 -18.7 113.6
2000-03-02 06:00:00 -19.0 112.3 -19.0 112.4 -19.0 112.3
2000-03-02 12:00:00 -19.3 110.8 -19.3 111.0 -19.3 110.8
2000-03-02 18:00:00 -19.5 109.4 -19.6 109.3 -19.5 109.4
2000-03-03 00:00:00 -19.6 107.8 -19.7 107.8 -19.6 107.8
2000-03-03 06:00:00 -19.7 106.2 -19.8 106.3 -19.7 106.2
2000-03-03 12:00:00 -20.0 104.3 -20.0 104.3 -20.0 104.3
2000-03-03 18:00:00 -20.2 102.4 -20.1 102.4 -20.2 102.4
2000-03-04 00:00:00 -20.3 100.8 -20.4 100.6 -20.3 100.8
2000-03-04 06:00:00 -20.3 99.3 -20.4 98.8 -20.3 99.3
2000-03-04 12:00:00 -20.5 97.9 -20.4 97.4 -20.5 97.9
2000-03-04 18:00:00 -20.5 96.7 -20.4 96.2 -20.5 96.7
2000-03-05 00:00:00 -20.5 95.6 -20.3 95.1 -20.5 95.6
2000-03-05 06:00:00 -20.4 94.8 -20.5 94.4 -20.4 94.8
2000-03-05 12:00:00 -20.4 94.0 -20.6 93.7 -20.4 94.0
2000-03-05 18:00:00 -20.4 93.2 -20.6 93.1 -20.4 93.2
2000-03-06 00:00:00 -20.5 92.8 -20.7 92.6 -20.5 92.8
jtwc_sh bom neumann
2000-03-06 06:00:00 -20.7 92.4 -20.9 92.1 -20.7 92.4
2000-03-06 12:00:00 -21.0 92.0 -21.5 92.0 -21.0 92.0
2000-03-06 18:00:00 -22.0 91.8 -22.0 91.8 -22.0 91.8
2000-03-07 00:00:00 -22.5 91.7 -22.7 91.5 -22.5 91.7
2000-03-07 06:00:00 -23.1 91.6 -23.3 91.7 -23.1 91.6
2000-03-07 12:00:00 -23.7 92.1 -23.8 91.9 -23.7 92.1
2000-03-07 18:00:00 -23.9 92.7 -23.8 92.1 -23.9 92.7
2000-03-08 00:00:00 -24.1 92.7 -23.9 92.3 -24.1 92.7
2000-03-08 06:00:00 -23.9 92.5 -24.0 92.6 -23.9 92.5
2000-03-08 12:00:00 -23.8 93.0 -23.9 92.8 -23.8 93.0
2000-03-08 18:00:00 -23.9 93.9 -23.8 92.5 -23.9 93.9
2000-03-09 00:00:00 -23.7 92.2
2000-03-09 06:00:00 -23.7 91.5
2000-03-09 12:00:00 -23.4 90.3
2000-03-09 18:00:00 -23.1 89.3
2000-03-10 00:00:00 -22.9 87.9
2000-03-10 06:00:00 -22.7 87.8

top of pageTrack Data:Intensity

jtwc_sh bom neumann
Date Wind Pres Wind Pres Wind Pres
2000-02-29 00:00:00 27. 1000.
2000-02-29 06:00:00 27. 1000.
2000-02-29 12:00:00 25. 35. 995. 25.
2000-02-29 18:00:00 25. 41. 990. 25.
2000-03-01 00:00:00 25. 49. 985. 25.
2000-03-01 06:00:00 35. 54. 980. 35.
2000-03-01 12:00:00 45. 60. 975. 45.
2000-03-01 18:00:00 55. 70. 965. 55.
2000-03-02 00:00:00 65. 76. 960. 65.
2000-03-02 06:00:00 65. 80. 955. 65.
2000-03-02 12:00:00 70. 84. 950. 70.
2000-03-02 18:00:00 95. 93. 940. 95.
2000-03-03 00:00:00 110. 101. 930. 110.
2000-03-03 06:00:00 120. 84. 950. 120.
2000-03-03 12:00:00 115. 70. 965. 115.
2000-03-03 18:00:00 115. 70. 965. 115.
2000-03-04 00:00:00 105. 70. 965. 105.
2000-03-04 06:00:00 105. 60. 975. 105.
2000-03-04 12:00:00 105. 54. 980. 105.
2000-03-04 18:00:00 90. 54. 980. 90.
2000-03-05 00:00:00 75. 54. 980. 75.
2000-03-05 06:00:00 65. 54. 980. 65.
2000-03-05 12:00:00 65. 54. 980. 65.
2000-03-05 18:00:00 65. 54. 980. 65.
2000-03-06 00:00:00 65. 54. 980. 65.
jtwc_sh bom neumann
2000-03-06 06:00:00 65. 54. 980. 65.
2000-03-06 12:00:00 65. 54. 980. 65.
2000-03-06 18:00:00 65. 54. 980. 65.
2000-03-07 00:00:00 65. 49. 985. 65.
2000-03-07 06:00:00 60. 49. 985. 60.
2000-03-07 12:00:00 65. 49. 985. 65.
2000-03-07 18:00:00 60. 41. 990. 60.
2000-03-08 00:00:00 55. 35. 995. 55.
2000-03-08 06:00:00 45. 35. 995. 45.
2000-03-08 12:00:00 30. 35. 995. 30.
2000-03-08 18:00:00 25. 27. 1000. 25.
2000-03-09 00:00:00 27. 1000.
2000-03-09 06:00:00 27. 1000.
2000-03-09 12:00:00 27. 1000.
2000-03-09 18:00:00 27. 1000.
2000-03-10 00:00:00 19. 1005.
2000-03-10 06:00:00 19. 1005.

top of page Links to source data

Source Source file Format
jtwc_sh bsh162000.txt ATCF
bom Newcyclonedatabase-08repair.csv:Line=19540:NORMAN CSV file (from Excel file)
neumann tracks.sh:Storm=1191:NORMAN:16S:BSH162000 HURDAT